Time;durP1;ratioP1;P1;durP2;ratioP2;P2;SDS_P1;SDS_P2;PMS_P1;PMS_P2;Temp;Humidity;BMP_temperature;BMP_pressure;BME280_temperature;BME280_humidity;BME280_pressure;Samples;Min_cycle;Max_cycle;Signal;HPM_P1;HPM_P2
2023/09/16 00:01:14;;;;;;;18.05;13.82;;;;;;;13.13;100.00;101322.44;4962080;28;20053;-71
2023/09/16 00:03:39;;;;;;;20.30;13.73;;;;;;;13.13;100.00;101316.97;4982038;28;20038;-71
2023/09/16 00:06:04;;;;;;;23.88;15.35;;;;;;;13.14;100.00;101317.84;4958268;28;20050;-71
2023/09/16 00:08:32;;;;;;;16.58;13.27;;;;;;;13.12;100.00;101317.09;4981349;28;20129;-72
2023/09/16 00:10:58;;;;;;;20.80;13.70;;;;;;;13.13;99.83;101318.84;4971066;28;20067;-72
2023/09/16 00:13:23;;;;;;;20.05;13.13;;;;;;;13.12;99.51;101319.84;4964768;28;20616;-72
2023/09/16 00:15:48;;;;;;;18.10;12.43;;;;;;;13.11;98.89;101316.22;4965487;28;20118;-72
2023/09/16 00:18:18;;;;;;;14.65;11.85;;;;;;;13.10;98.48;101316.31;4966848;28;20047;-71
2023/09/16 00:20:45;;;;;;;16.15;12.45;;;;;;;13.11;98.55;101315.38;4954527;28;20502;-71
2023/09/16 00:23:10;;;;;;;15.13;11.82;;;;;;;13.11;98.44;101326.28;4969829;28;20039;-71
2023/09/16 00:25:36;;;;;;;19.70;14.32;;;;;;;13.10;99.03;101333.59;4970033;28;20049;-72
2023/09/16 00:28:06;;;;;;;18.60;13.43;;;;;;;13.07;98.79;101336.56;4965174;28;20043;-72
2023/09/16 00:30:32;;;;;;;19.55;13.40;;;;;;;13.06;98.53;101337.56;4950987;28;20121;-71
2023/09/16 00:32:57;;;;;;;23.30;13.07;;;;;;;13.02;98.50;101330.56;4959885;28;20122;-71
2023/09/16 00:35:23;;;;;;;15.43;12.00;;;;;;;12.99;98.79;101331.66;4963850;28;20134;-71
2023/09/16 00:37:48;;;;;;;17.92;13.15;;;;;;;12.98;98.89;101335.38;4973966;28;20030;-71
2023/09/16 00:40:13;;;;;;;16.80;11.88;;;;;;;12.95;98.76;101327.41;4965091;28;20065;-71
2023/09/16 00:42:40;;;;;;;15.73;12.77;;;;;;;12.93;98.28;101323.94;4969933;28;20042;-72
2023/09/16 00:45:07;;;;;;;16.67;12.73;;;;;;;12.91;98.16;101320.44;4961950;28;20047;-72
2023/09/16 00:47:35;;;;;;;19.35;13.07;;;;;;;12.86;98.90;101319.91;4951239;28;20396;-71
2023/09/16 00:50:04;;;;;;;16.40;12.65;;;;;;;12.84;98.77;101323.75;4950788;28;20031;-71
2023/09/16 00:52:30;;;;;;;17.55;12.07;;;;;;;12.82;98.81;101322.97;4966025;28;20125;-71
2023/09/16 00:54:55;;;;;;;15.52;12.20;;;;;;;12.80;99.19;101319.50;4982060;28;20039;-71
2023/09/16 00:57:21;;;;;;;17.35;12.82;;;;;;;12.76;99.80;101306.06;4970715;28;20018;-72
2023/09/16 00:59:46;;;;;;;21.25;13.80;;;;;;;12.74;100.00;101302.59;4957020;28;20059;-72
2023/09/16 01:02:14;;;;;;;24.50;14.43;;;;;;;12.67;100.00;101295.84;4971585;28;20038;-72
2023/09/16 01:04:42;;;;;;;18.85;13.63;;;;;;;12.64;100.00;101306.13;4951361;28;20564;-71
2023/09/16 01:07:07;;;;;;;18.85;14.13;;;;;;;12.63;100.00;101301.63;4965998;28;20502;-71
2023/09/16 01:09:33;;;;;;;18.58;13.90;;;;;;;12.60;100.00;101294.56;4966343;28;20070;-72
2023/09/16 01:11:58;;;;;;;16.67;12.15;;;;;;;12.59;100.00;101297.38;4968346;28;20044;-72
2023/09/16 01:14:24;;;;;;;19.25;13.48;;;;;;;12.56;100.00;101295.75;4964760;28;20034;-72
2023/09/16 01:16:58;;;;;;;18.45;12.60;;;;;;;12.54;100.00;101286.81;4964630;28;20027;-72
2023/09/16 01:19:44;;;;;;;14.30;11.98;;;;;;;12.55;100.00;101298.63;4966164;28;20042;-72
2023/09/16 01:22:10;;;;;;;20.83;12.90;;;;;;;12.51;100.00;101300.69;4950568;28;20036;-72
2023/09/16 01:24:36;;;;;;;17.77;13.38;;;;;;;12.48;100.00;101290.84;4966045;28;20387;-71
2023/09/16 01:27:01;;;;;;;19.50;12.13;;;;;;;12.47;100.00;101288.25;4964817;28;20094;-72
2023/09/16 01:29:28;;;;;;;17.52;11.75;;;;;;;12.47;100.00;101290.97;4964492;28;20023;-72
2023/09/16 01:32:01;;;;;;;16.30;11.63;;;;;;;12.45;99.74;101290.19;4964954;28;20074;-72
2023/09/16 01:34:41;;;;;;;16.98;11.65;;;;;;;12.45;99.65;101290.19;4980459;28;20507;-72
2023/09/16 01:37:12;;;;;;;15.25;10.82;;;;;;;12.44;99.38;101288.47;4962469;28;20068;-72
2023/09/16 01:39:39;;;;;;;18.30;12.20;;;;;;;12.43;99.55;101293.06;4968177;28;20509;-72
2023/09/16 01:42:05;;;;;;;12.75;11.05;;;;;;;12.41;99.16;101297.78;4967887;28;20479;-72
2023/09/16 01:44:31;;;;;;;20.95;12.48;;;;;;;12.37;100.00;101293.50;4979584;28;20038;-72
2023/09/16 01:46:57;;;;;;;16.15;10.85;;;;;;;12.32;100.00;101295.72;4955322;28;20514;-74
2023/09/16 01:49:23;;;;;;;19.10;12.15;;;;;;;12.31;100.00;101293.97;4950114;28;20044;-74
2023/09/16 01:51:48;;;;;;;17.90;12.45;;;;;;;12.31;100.00;101290.34;4963664;28;20038;-75
2023/09/16 01:54:14;;;;;;;15.48;11.27;;;;;;;12.29;100.00;101289.59;4964845;28;20038;-75
2023/09/16 01:56:39;;;;;;;20.00;13.75;;;;;;;12.28;100.00;101285.13;4951406;28;20120;-71
2023/09/16 01:59:05;;;;;;;16.83;13.02;;;;;;;12.25;100.00;101287.06;4960248;28;20039;-74
2023/09/16 02:01:30;;;;;;;20.30;13.02;;;;;;;12.24;100.00;101287.19;4964599;28;20050;-74
2023/09/16 02:03:55;;;;;;;16.55;11.50;;;;;;;12.21;100.00;101279.22;4968600;28;20102;-72
2023/09/16 02:06:21;;;;;;;20.80;12.77;;;;;;;12.21;100.00;101282.81;4968501;28;20062;-75
2023/09/16 02:08:47;;;;;;;23.55;13.15;;;;;;;12.19;100.00;101287.53;4968143;28;20038;-74
2023/09/16 02:11:14;;;;;;;17.55;13.55;;;;;;;12.17;100.00;101288.59;4968391;28;20561;-75
2023/09/16 02:13:40;;;;;;;16.80;12.82;;;;;;;12.16;100.00;101281.41;4966986;28;20031;-74
2023/09/16 02:16:05;;;;;;;15.55;12.30;;;;;;;12.14;100.00;101278.81;4963982;28;20038;-75
2023/09/16 02:18:32;;;;;;;18.38;13.30;;;;;;;12.13;100.00;101295.28;4965114;28;20035;-75
2023/09/16 02:20:57;;;;;;;17.92;12.60;;;;;;;12.13;100.00;101287.13;4967654;28;20041;-74
2023/09/16 02:23:23;;;;;;;21.45;13.98;;;;;;;12.12;100.00;101286.22;4969148;28;20023;-74
2023/09/16 02:25:49;;;;;;;18.08;13.20;;;;;;;12.12;100.00;101279.88;4969325;28;20035;-75
2023/09/16 02:28:14;;;;;;;20.40;13.55;;;;;;;12.10;100.00;101273.69;4952563;28;20424;-75
2023/09/16 02:30:40;;;;;;;17.33;12.65;;;;;;;12.08;100.00;101273.81;4949867;28;20466;-74
2023/09/16 02:33:05;;;;;;;17.20;13.00;;;;;;;12.07;100.00;101282.94;4968819;28;20059;-74
2023/09/16 02:35:30;;;;;;;23.40;15.18;;;;;;;12.06;100.00;101275.75;4964092;28;20118;-75
2023/09/16 02:37:58;;;;;;;19.92;14.50;;;;;;;12.07;100.00;101272.03;4965016;28;20487;-74
2023/09/16 02:40:24;;;;;;;21.77;14.88;;;;;;;12.03;100.00;101270.53;4965788;28;20054;-75
2023/09/16 02:42:50;;;;;;;21.42;13.23;;;;;;;12.03;100.00;101266.91;4964723;28;20483;-75
2023/09/16 02:45:15;;;;;;;16.40;13.25;;;;;;;12.00;100.00;101266.16;4967197;28;20133;-75
2023/09/16 02:47:40;;;;;;;16.33;13.07;;;;;;;12.02;100.00;101271.50;4967529;28;20418;-75
2023/09/16 02:50:07;;;;;;;18.85;13.70;;;;;;;12.02;100.00;101282.41;4963672;28;20093;-75
2023/09/16 02:52:32;;;;;;;17.63;13.38;;;;;;;12.03;100.00;101283.28;4979697;28;20077;-75
2023/09/16 02:54:58;;;;;;;17.55;13.10;;;;;;;12.03;100.00;101284.19;4963786;28;20058;-75
2023/09/16 02:57:23;;;;;;;17.52;12.57;;;;;;;12.01;100.00;101277.94;4965080;28;20478;-73
2023/09/16 02:59:48;;;;;;;24.33;12.07;;;;;;;12.01;100.00;101277.94;4963721;28;20407;-75
2023/09/16 03:02:15;;;;;;;17.80;13.43;;;;;;;11.97;100.00;101260.06;4977358;28;20073;-75
2023/09/16 03:04:41;;;;;;;19.92;12.63;;;;;;;11.98;100.00;101280.88;4970079;28;20098;-75
2023/09/16 03:07:06;;;;;;;19.27;13.60;;;;;;;11.96;100.00;101278.28;4968458;28;20178;-75
2023/09/16 03:09:32;;;;;;;16.40;13.70;;;;;;;11.96;100.00;101278.28;4969801;28;20043;-75
2023/09/16 03:11:57;;;;;;;19.38;14.35;;;;;;;11.93;100.00;101272.16;4967861;28;20057;-75
2023/09/16 03:14:23;;;;;;;17.83;13.55;;;;;;;11.90;100.00;101267.81;4971373;28;20073;-75
2023/09/16 03:16:48;;;;;;;18.75;13.63;;;;;;;11.87;100.00;101264.44;4959156;28;20035;-75
2023/09/16 03:19:16;;;;;;;18.25;13.32;;;;;;;11.90;100.00;101264.22;4971912;28;20122;-74
2023/09/16 03:21:42;;;;;;;17.75;12.45;;;;;;;11.84;100.00;101257.31;4967801;28;20093;-75
2023/09/16 03:24:07;;;;;;;18.50;12.35;;;;;;;11.86;100.00;101259.97;4957375;28;20038;-75
2023/09/16 03:26:33;;;;;;;16.52;12.93;;;;;;;11.86;100.00;101260.81;4967421;28;20070;-75
2023/09/16 03:28:59;;;;;;;17.48;13.00;;;;;;;11.83;100.00;101255.59;4952890;28;20034;-75
2023/09/16 03:31:26;;;;;;;23.58;12.45;;;;;;;11.84;100.00;101264.63;4966002;28;20078;-75
2023/09/16 03:33:53;;;;;;;20.13;15.35;;;;;;;11.83;100.00;101265.63;4977163;28;20027;-74
2023/09/16 03:36:19;;;;;;;17.38;12.77;;;;;;;11.80;100.00;101258.50;4967448;28;20038;-75
2023/09/16 03:38:50;;;;;;;20.38;13.48;;;;;;;11.79;100.00;101256.75;4961619;28;20042;-75
2023/09/16 03:41:17;;;;;;;17.42;13.23;;;;;;;11.79;100.00;101259.47;4983489;28;20032;-75
2023/09/16 03:43:50;;;;;;;19.70;11.77;;;;;;;11.80;100.00;101260.34;4976471;28;20033;-75
2023/09/16 03:46:16;;;;;;;17.90;11.95;;;;;;;11.78;100.00;101255.00;4967070;28;20043;-74
2023/09/16 03:48:41;;;;;;;15.82;11.95;;;;;;;11.80;100.00;101258.50;4951613;28;20766;-73
2023/09/16 03:51:07;;;;;;;16.45;12.40;;;;;;;11.78;100.00;101248.69;4956848;28;20038;-75
2023/09/16 03:53:36;;;;;;;17.05;13.25;;;;;;;11.77;100.00;101245.09;4970380;28;20297;-75
2023/09/16 03:56:08;;;;;;;15.52;11.93;;;;;;;11.76;100.00;101248.81;4959444;28;20039;-75
2023/09/16 03:58:34;;;;;;;24.20;13.90;;;;;;;11.74;100.00;101245.31;4956530;28;20114;-75
2023/09/16 04:01:00;;;;;;;18.40;14.02;;;;;;;11.73;100.00;101249.88;4965029;28;20044;-75
2023/09/16 04:03:25;;;;;;;18.00;13.73;;;;;;;11.71;100.00;101248.25;4955730;28;20100;-73
2023/09/16 04:05:54;;;;;;;19.88;14.73;;;;;;;11.70;100.00;101244.66;4962233;28;20047;-75
2023/09/16 04:08:20;;;;;;;19.10;14.27;;;;;;;11.68;100.00;101234.84;4952708;29;20042;-74
2023/09/16 04:10:45;;;;;;;17.80;14.00;;;;;;;11.68;100.00;101241.16;4953595;28;20495;-75
2023/09/16 04:13:10;;;;;;;17.60;13.90;;;;;;;11.67;100.00;101244.00;4966326;28;20022;-75
2023/09/16 04:15:36;;;;;;;23.13;13.20;;;;;;;11.62;100.00;101240.72;4966589;28;20491;-75
2023/09/16 04:18:01;;;;;;;17.88;12.70;;;;;;;11.62;100.00;101249.78;4967325;28;20758;-75
2023/09/16 04:20:27;;;;;;;15.77;12.38;;;;;;;11.61;100.00;101242.59;4951876;28;20471;-74
2023/09/16 04:22:52;;;;;;;14.55;11.90;;;;;;;11.63;100.00;101250.66;4984038;28;20027;-75
2023/09/16 04:25:17;;;;;;;14.20;11.50;;;;;;;11.61;100.00;101252.59;4969271;28;20042;-74
2023/09/16 04:27:43;;;;;;;15.68;11.43;;;;;;;11.60;100.00;101242.69;4969355;28;20121;-75
2023/09/16 04:30:09;;;;;;;15.18;12.60;;;;;;;11.59;100.00;101238.22;4966038;28;20083;-74
2023/09/16 04:32:35;;;;;;;17.67;11.88;;;;;;;11.59;100.00;101243.66;4966406;28;20035;-75
2023/09/16 04:35:00;;;;;;;20.52;13.00;;;;;;;11.59;100.00;101246.38;4966159;28;20574;-75
2023/09/16 04:37:26;;;;;;;22.08;14.45;;;;;;;11.57;100.00;101245.63;4967005;28;20031;-75
2023/09/16 04:39:52;;;;;;;15.55;12.98;;;;;;;11.58;100.00;101253.69;4969968;28;20497;-75
2023/09/16 04:42:17;;;;;;;21.42;12.75;;;;;;;11.57;100.00;101245.63;4956127;28;20050;-75
2023/09/16 04:44:44;;;;;;;16.23;12.15;;;;;;;11.57;100.00;101243.78;4980742;28;20119;-74
2023/09/16 04:47:13;;;;;;;14.60;11.70;;;;;;;11.57;100.00;101240.19;4964137;28;20031;-75
2023/09/16 04:49:38;;;;;;;15.50;12.38;;;;;;;11.57;100.00;101238.34;4966556;28;20133;-72
2023/09/16 04:52:04;;;;;;;18.20;12.57;;;;;;;11.55;100.00;101233.97;4951069;28;20134;-74
2023/09/16 04:54:32;;;;;;;16.95;13.05;;;;;;;11.54;100.00;101233.09;4979336;28;20501;-75
2023/09/16 04:56:58;;;;;;;16.98;12.52;;;;;;;11.54;100.00;101234.94;4965385;28;20110;-75
2023/09/16 04:59:24;;;;;;;19.42;13.85;;;;;;;11.54;100.00;101234.94;4965671;28;20047;-73
2023/09/16 05:01:51;;;;;;;23.98;16.25;;;;;;;11.54;100.00;101232.22;4965882;28;20043;-75
2023/09/16 05:04:17;;;;;;;17.40;12.95;;;;;;;11.54;100.00;101240.41;4962672;28;20050;-75
2023/09/16 05:06:42;;;;;;;18.08;12.27;;;;;;;11.54;100.00;101241.25;4967778;28;20122;-75
2023/09/16 05:09:07;;;;;;;14.73;11.15;;;;;;;11.55;100.00;101239.41;4985468;28;20041;-74
2023/09/16 05:11:33;;;;;;;18.88;12.95;;;;;;;11.54;100.00;101245.84;4963831;28;20487;-75
2023/09/16 05:14:01;;;;;;;15.43;12.35;;;;;;;11.52;100.00;101239.59;4974350;28;20050;-75
2023/09/16 05:16:26;;;;;;;14.25;11.93;;;;;;;11.53;100.00;101238.66;4959819;28;20125;-74
2023/09/16 05:18:55;;;;;;;18.45;13.23;;;;;;;11.53;100.00;101239.53;4968710;28;20129;-74
2023/09/16 05:21:20;;;;;;;17.13;12.55;;;;;;;11.54;100.00;101240.41;4952464;28;20114;-74
2023/09/16 05:23:46;;;;;;;18.35;12.98;;;;;;;11.52;100.00;101243.25;4968792;28;20427;-74
2023/09/16 05:26:14;;;;;;;17.60;12.27;;;;;;;11.50;100.00;101239.72;4962545;28;20089;-73
2023/09/16 05:28:40;;;;;;;18.10;12.95;;;;;;;11.52;100.00;101243.25;4969188;28;20090;-74
2023/09/16 05:31:06;;;;;;;19.27;13.45;;;;;;;11.52;100.00;101247.78;4948446;28;20823;-75
2023/09/16 05:33:34;;;;;;;16.42;12.82;;;;;;;11.52;100.00;101245.97;4979885;28;20065;-73
2023/09/16 05:36:00;;;;;;;20.20;13.02;;;;;;;11.53;100.00;101238.66;4967508;28;20058;-74
2023/09/16 05:38:25;;;;;;;16.58;12.25;;;;;;;11.54;100.00;101235.81;4984496;28;20034;-72
2023/09/16 05:40:51;;;;;;;20.08;13.48;;;;;;;11.54;100.00;101235.81;4968505;28;20612;-73
2023/09/16 05:43:18;;;;;;;16.75;12.93;;;;;;;11.56;100.00;101239.28;4980954;28;20093;-73
2023/09/16 05:45:49;;;;;;;17.25;12.18;;;;;;;11.59;100.00;101241.81;4965347;28;20070;-73
2023/09/16 05:48:14;;;;;;;17.75;13.00;;;;;;;11.62;100.00;101241.59;4952615;28;20045;-73
2023/09/16 05:50:42;;;;;;;16.27;13.13;;;;;;;11.64;100.00;101247.81;4966435;28;20018;-73
2023/09/16 05:53:07;;;;;;;16.00;12.25;;;;;;;11.67;100.00;101246.72;4961545;28;20486;-72
2023/09/16 05:55:40;;;;;;;14.85;12.50;;;;;;;11.70;100.00;101243.78;4962668;28;20433;-73
2023/09/16 05:58:11;;;;;;;19.90;12.93;;;;;;;11.72;100.00;101241.81;4967948;28;20062;-73
2023/09/16 06:00:38;;;;;;;16.30;12.55;;;;;;;11.79;100.00;101244.97;4970578;28;20046;-73
2023/09/16 06:03:04;;;;;;;17.80;12.40;;;;;;;11.86;100.00;101241.75;4971686;28;20077;-73
2023/09/16 06:05:30;;;;;;;18.33;13.30;;;;;;;11.93;100.00;101240.31;4951417;28;20122;-73
2023/09/16 06:07:55;;;;;;;22.13;14.18;;;;;;;11.99;100.00;101242.63;4968823;28;20039;-73
2023/09/16 06:10:20;;;;;;;22.10;14.55;;;;;;;12.05;100.00;101244.03;4966471;28;20023;-73
2023/09/16 06:12:47;;;;;;;24.60;15.13;;;;;;;12.12;100.00;101252.63;4964967;28;20039;-73
2023/09/16 06:15:12;;;;;;;26.60;18.95;;;;;;;12.18;100.00;101255.78;4964326;28;20482;-73
2023/09/16 06:17:38;;;;;;;19.77;16.08;;;;;;;12.23;100.00;101248.13;4966035;28;20027;-72
2023/09/16 06:20:04;;;;;;;19.35;14.77;;;;;;;12.32;100.00;101254.78;4965015;28;20070;-74
2023/09/16 06:22:29;;;;;;;20.48;15.85;;;;;;;12.36;100.00;101252.72;4952298;28;20027;-73
2023/09/16 06:24:55;;;;;;;24.92;17.48;;;;;;;12.40;100.00;101252.38;4969976;28;20125;-73
2023/09/16 06:27:22;;;;;;;35.22;21.65;;;;;;;12.47;100.00;101255.50;4944511;28;20045;-73
2023/09/16 06:29:48;;;;;;;24.58;16.92;;;;;;;12.50;100.00;101258.88;4969155;28;20027;-73
2023/09/16 06:32:14;;;;;;;20.25;15.23;;;;;;;12.54;100.00;101256.78;4973278;28;20027;-74
2023/09/16 06:34:40;;;;;;;20.27;13.55;;;;;;;12.59;100.00;101256.44;4983222;28;20074;-74
2023/09/16 06:37:05;;;;;;;19.02;13.70;;;;;;;12.65;100.00;101256.88;4975558;28;20042;-73
2023/09/16 06:39:32;;;;;;;25.08;19.42;;;;;;;12.73;100.00;101254.44;4965836;28;20026;-73
2023/09/16 06:41:58;;;;;;;21.55;15.38;;;;;;;12.79;100.00;101260.44;4962676;28;20502;-73
2023/09/16 06:44:30;;;;;;;25.48;18.63;;;;;;;12.86;100.00;101262.56;4980897;28;20023;-73
2023/09/16 06:46:56;;;;;;;24.70;16.90;;;;;;;12.93;100.00;101263.84;4965428;28;20089;-73
2023/09/16 06:49:21;;;;;;;23.23;17.70;;;;;;;13.05;100.00;101262.03;4969143;28;20042;-73
2023/09/16 06:51:47;;;;;;;25.77;17.70;;;;;;;13.15;100.00;101263.09;4817049;28;20580;-73
2023/09/16 06:54:13;;;;;;;27.10;20.25;;;;;;;13.27;100.00;101274.97;4949065;28;20498;-73
2023/09/16 06:56:38;;;;;;;31.52;22.52;;;;;;;13.38;100.00;101261.38;5015072;28;20034;-73
2023/09/16 06:59:03;;;;;;;29.73;22.45;;;;;;;13.52;100.00;101263.00;4995179;28;20045;-73
2023/09/16 07:01:29;;;;;;;31.90;22.27;;;;;;;13.61;100.00;101259.53;4982152;28;20600;-74
2023/09/16 07:03:54;;;;;;;33.33;21.73;;;;;;;13.69;100.00;101258.94;4986378;28;20046;-73
2023/09/16 07:06:20;;;;;;;29.83;22.42;;;;;;;13.78;100.00;101261.81;4999143;28;20026;-72
2023/09/16 07:08:45;;;;;;;33.35;23.67;;;;;;;13.87;100.00;101262.09;4985547;28;20513;-74
2023/09/16 07:11:12;;;;;;;35.40;25.65;;;;;;;13.94;100.00;101255.13;4999873;28;20129;-74
2023/09/16 07:13:38;;;;;;;33.83;25.05;;;;;;;14.04;100.00;101259.75;4988849;28;20386;-74
2023/09/16 07:16:03;;;;;;;31.80;24.58;;;;;;;14.14;100.00;101262.63;4990208;28;20062;-74
2023/09/16 07:18:30;;;;;;;41.13;26.88;;;;;;;14.19;100.00;101254.91;4990189;28;20033;-74
2023/09/16 07:20:55;;;;;;;39.58;26.65;;;;;;;14.27;100.00;101251.56;4984273;28;20050;-73
2023/09/16 07:23:21;;;;;;;37.35;25.80;;;;;;;14.38;100.00;101257.00;4982622;28;20494;-74
2023/09/16 07:25:57;;;;;;;39.35;27.33;;;;;;;14.46;100.00;101260.00;4982171;28;20027;-74
2023/09/16 07:28:24;;;;;;;41.72;27.23;;;;;;;14.56;100.00;101251.06;4984637;28;20034;-73
2023/09/16 07:30:50;;;;;;;35.92;26.30;;;;;;;14.65;100.00;101256.63;4981139;28;20023;-74
2023/09/16 07:33:15;;;;;;;37.83;26.63;;;;;;;14.74;100.00;101258.63;4983719;28;20054;-74
2023/09/16 07:35:40;;;;;;;39.40;25.23;;;;;;;14.83;100.00;101259.72;4980897;28;20030;-74
2023/09/16 07:38:06;;;;;;;38.30;27.48;;;;;;;15.10;100.00;101261.09;4985321;28;20042;-74
2023/09/16 07:40:32;;;;;;;38.85;26.20;;;;;;;15.35;100.00;101263.50;5013241;28;20039;-74
2023/09/16 07:42:58;;;;;;;32.30;23.60;;;;;;;15.49;100.00;101265.94;4983182;28;20438;-74
2023/09/16 07:45:24;;;;;;;32.25;24.08;;;;;;;15.57;100.00;101270.72;4986157;28;20120;-74
2023/09/16 07:47:49;;;;;;;32.80;23.10;;;;;;;15.64;100.00;101263.75;4976106;28;20498;-73
2023/09/16 07:50:15;;;;;;;30.73;22.88;;;;;;;15.69;100.00;101266.97;4990590;28;20077;-74
2023/09/16 07:52:42;;;;;;;33.17;21.73;;;;;;;15.73;100.00;101265.69;4991079;28;20030;-74
2023/09/16 07:55:07;;;;;;;32.38;22.38;;;;;;;15.78;100.00;101260.66;4947540;28;20074;-74
2023/09/16 07:57:33;;;;;;;36.22;23.17;;;;;;;15.88;100.00;101260.72;4949695;28;20442;-74
2023/09/16 07:59:58;;;;;;;32.10;22.83;;;;;;;15.97;100.00;101270.91;4971076;28;20049;-74
2023/09/16 08:02:24;;;;;;;37.63;25.10;;;;;;;16.12;100.00;101262.31;4960464;28;20034;-74
2023/09/16 08:04:49;;;;;;;32.50;22.20;;;;;;;16.27;100.00;101270.06;4970172;28;20034;-75
2023/09/16 08:07:14;;;;;;;32.75;23.60;;;;;;;16.42;100.00;101267.81;4978913;28;20020;-74
2023/09/16 08:09:40;;;;;;;35.85;21.85;;;;;;;16.55;100.00;101270.28;4962790;28;20573;-73
2023/09/16 08:12:05;;;;;;;31.85;22.75;;;;;;;16.74;100.00;101277.75;4976997;28;20513;-74
2023/09/16 08:14:30;;;;;;;26.75;19.88;;;;;;;16.87;100.00;101269.25;5002037;28;20038;-74
2023/09/16 08:16:57;;;;;;;33.08;21.90;;;;;;;17.02;100.00;101274.22;4965106;28;20050;-73
2023/09/16 08:19:22;;;;;;;29.55;20.98;;;;;;;17.08;100.00;101275.50;4952776;29;20089;-74
2023/09/16 08:21:48;;;;;;;30.83;22.60;;;;;;;17.15;100.00;101273.91;4952246;28;20490;-74
2023/09/16 08:24:14;;;;;;;28.75;22.08;;;;;;;17.22;100.00;101274.22;4957977;28;20430;-74
2023/09/16 08:26:39;;;;;;;33.22;23.60;;;;;;;17.34;100.00;101275.81;4967891;28;20034;-74
2023/09/16 08:29:04;;;;;;;29.17;22.60;;;;;;;17.43;100.00;101276.81;4982715;28;20035;-73
2023/09/16 08:31:30;;;;;;;24.75;19.02;;;;;;;17.47;96.19;101284.63;4962586;28;20035;-73
2023/09/16 08:34:01;;;;;;;27.45;20.60;;;;;;;17.57;97.43;101285.50;4970302;28;20123;-74
2023/09/16 08:36:27;;;;;;;26.13;19.97;;;;;;;17.64;98.06;101285.81;4980815;28;20031;-74
2023/09/16 08:38:52;;;;;;;29.90;19.02;;;;;;;17.70;98.96;101289.84;4966348;28;20281;-74
2023/09/16 08:41:25;;;;;;;27.77;20.33;;;;;;;17.81;98.34;101285.09;4967720;28;20065;-74
2023/09/16 08:43:53;;;;;;;29.25;17.73;;;;;;;17.89;95.05;101300.84;4965859;28;20042;-73
2023/09/16 08:46:21;;;;;;;25.15;16.90;;;;;;;18.05;94.97;101298.38;4964148;28;20026;-72
2023/09/16 08:48:50;;;;;;;25.70;17.83;;;;;;;18.18;96.54;101300.78;4965272;28;20617;-73
2023/09/16 08:51:19;;;;;;;24.52;16.85;;;;;;;18.32;92.69;101302.19;4966021;28;20121;-73
2023/09/16 08:53:46;;;;;;;23.92;17.23;;;;;;;18.46;93.80;101309.09;4968463;28;20030;-73
2023/09/16 08:56:12;;;;;;;22.38;15.77;;;;;;;18.57;91.95;101300.66;4983044;28;20031;-74
2023/09/16 08:58:39;;;;;;;20.63;14.88;;;;;;;18.75;92.13;101304.38;4965253;28;20516;-74
2023/09/16 09:01:05;;;;;;;20.30;14.25;;;;;;;18.75;90.04;101303.50;4965266;28;20391;-72
2023/09/16 09:03:32;;;;;;;18.40;14.20;;;;;;;18.88;92.86;101308.66;4998465;28;20035;-74
2023/09/16 09:05:58;;;;;;;24.15;17.05;;;;;;;19.00;87.54;101308.28;4964714;28;20050;-74
2023/09/16 09:08:23;;;;;;;22.40;15.75;;;;;;;19.08;89.30;101302.88;4982806;28;20582;-73
2023/09/16 09:10:48;;;;;;;20.45;15.23;;;;;;;19.15;89.52;101302.25;4981753;28;20035;-74
2023/09/16 09:13:14;;;;;;;19.48;14.93;;;;;;;19.28;92.37;101294.44;4981748;28;20027;-74
2023/09/16 09:15:41;;;;;;;22.55;15.90;;;;;;;19.34;88.15;101294.69;4950463;28;20043;-74
2023/09/16 09:18:07;;;;;;;22.17;15.65;;;;;;;19.41;87.62;101299.59;4951347;28;20442;-74
2023/09/16 09:20:33;;;;;;;23.20;15.48;;;;;;;19.49;86.10;101302.41;4965323;28;20031;-74
2023/09/16 09:22:59;;;;;;;22.73;15.73;;;;;;;19.53;84.62;101304.69;4981814;28;20094;-74
2023/09/16 09:25:28;;;;;;;18.77;14.18;;;;;;;19.69;83.54;101320.59;4951036;28;20093;-73
2023/09/16 09:27:57;;;;;;;18.17;14.02;;;;;;;19.79;83.88;101320.50;4981846;28;20046;-73
2023/09/16 09:30:31;;;;;;;19.98;13.98;;;;;;;19.96;86.68;101322.38;4969692;28;20107;-74
2023/09/16 09:32:58;;;;;;;24.00;13.48;;;;;;;20.29;86.99;101317.94;4950825;29;20525;-74
2023/09/16 09:35:24;;;;;;;17.38;12.05;;;;;;;20.73;86.70;101312.31;4965434;28;20027;-74
2023/09/16 09:37:50;;;;;;;21.17;11.68;;;;;;;20.88;80.39;101315.31;4950652;28;20055;-73
2023/09/16 09:40:17;;;;;;;16.98;11.27;;;;;;;21.09;79.98;101317.66;4950555;28;20119;-74
2023/09/16 09:42:44;;;;;;;17.02;11.05;;;;;;;21.23;78.04;101324.44;4950366;28;20066;-74
2023/09/16 09:45:11;;;;;;;14.45;9.95;;;;;;;21.36;82.09;101322.09;4981288;28;20827;-74
2023/09/16 09:47:37;;;;;;;16.90;11.43;;;;;;;21.39;79.43;101325.38;4950458;28;20047;-74
2023/09/16 09:50:04;;;;;;;17.40;11.23;;;;;;;21.49;79.09;101327.09;4965139;28;20031;-74
2023/09/16 09:52:30;;;;;;;14.77;11.13;;;;;;;21.80;79.07;101327.31;4950471;28;20085;-74
2023/09/16 09:54:57;;;;;;;14.93;11.32;;;;;;;21.86;76.19;101323.84;4950422;28;20175;-71
2023/09/16 09:57:23;;;;;;;19.33;11.85;;;;;;;21.89;76.84;101320.75;4950709;28;20039;-74
2023/09/16 09:59:49;;;;;;;15.00;12.02;;;;;;;22.15;77.42;101324.25;4949232;28;20094;-74
2023/09/16 10:02:15;;;;;;;20.25;12.30;;;;;;;22.35;74.40;101315.53;4949873;28;20443;-74
2023/09/16 10:04:41;;;;;;;16.25;11.88;;;;;;;22.53;71.18;101316.19;4965111;28;20969;-74
2023/09/16 10:07:07;;;;;;;16.40;11.38;;;;;;;22.85;71.97;101314.34;4950464;28;20062;-74
2023/09/16 10:09:32;;;;;;;18.25;11.48;;;;;;;23.02;69.79;101310.44;4949697;28;20039;-73
2023/09/16 10:11:58;;;;;;;14.27;10.93;;;;;;;23.27;66.60;101316.75;4949102;28;20497;-74
2023/09/16 10:14:24;;;;;;;14.02;11.27;;;;;;;23.41;68.37;101304.84;4965002;28;20031;-74
2023/09/16 10:16:50;;;;;;;18.90;11.70;;;;;;;23.55;69.00;101307.84;4950035;28;20467;-74
2023/09/16 10:19:15;;;;;;;13.95;8.90;;;;;;;24.01;72.37;101300.38;4950297;28;20118;-74
2023/09/16 10:21:41;;;;;;;14.55;11.05;;;;;;;24.09;64.25;101303.09;4950003;28;20061;-74
2023/09/16 10:24:08;;;;;;;20.13;12.55;;;;;;;24.11;63.77;101306.56;4949968;29;20109;-74
2023/09/16 10:26:34;;;;;;;16.17;11.15;;;;;;;24.26;64.13;101301.03;4964186;28;20549;-74
2023/09/16 10:29:02;;;;;;;14.18;11.15;;;;;;;24.51;66.44;101304.44;4964486;28;20043;-74
2023/09/16 10:31:28;;;;;;;14.30;10.00;;;;;;;24.85;67.77;101303.81;4979737;28;20507;-73
2023/09/16 10:33:55;;;;;;;14.55;10.57;;;;;;;25.00;63.88;101297.41;4950438;28;20078;-74
2023/09/16 10:36:21;;;;;;;11.90;9.88;;;;;;;25.22;62.49;101301.13;4980879;28;20035;-74
2023/09/16 10:38:47;;;;;;;17.33;11.05;;;;;;;25.39;60.47;101291.47;4950202;29;20062;-74
2023/09/16 10:41:15;;;;;;;14.27;11.40;;;;;;;25.13;56.43;101297.56;4980316;28;20487;-73
2023/09/16 10:43:42;;;;;;;16.00;12.40;;;;;;;24.90;57.34;101297.69;4949493;28;20570;-74
2023/09/16 10:46:09;;;;;;;15.60;11.27;;;;;;;24.83;63.19;101288.41;4948968;28;20019;-75
2023/09/16 10:48:34;;;;;;;14.45;11.48;;;;;;;24.86;60.53;101285.22;4950032;28;20039;-74
2023/09/16 10:51:04;;;;;;;15.52;10.38;;;;;;;25.09;61.96;101286.00;4949404;28;20050;-74
2023/09/16 10:53:36;;;;;;;16.92;11.40;;;;;;;25.05;60.98;101286.53;4950051;28;20486;-74
2023/09/16 10:56:28;;;;;;;18.00;12.63;;;;;;;25.11;64.11;101281.06;4949423;28;20042;-74
2023/09/16 10:59:00;;;;;;;18.30;12.60;;;;;;;25.23;61.14;101275.88;4981185;28;20055;-72
2023/09/16 11:01:36;;;;;;;14.60;11.32;;;;;;;25.34;62.75;101274.47;4979966;28;20035;-72